createdAt,value
2018-12-17T00:03:02.968Z,101391.87
2018-12-17T00:06:08.037Z,101387.41
2018-12-17T00:09:12.337Z,101383.58
2018-12-17T00:12:16.626Z,101391.48
2018-12-17T00:15:20.142Z,101385.30
2018-12-17T00:18:24.265Z,101391.01
2018-12-17T00:21:27.439Z,101392.16
2018-12-17T00:24:30.635Z,101400.27
2018-12-17T00:27:33.837Z,101397.08
2018-12-17T00:30:37.062Z,101401.41
2018-12-17T00:33:40.227Z,101395.64
2018-12-17T00:36:43.542Z,101389.59
2018-12-17T00:39:46.710Z,101397.43
2018-12-17T00:42:49.927Z,101401.80
2018-12-17T00:45:54.009Z,101404.95
2018-12-17T00:48:57.225Z,101410.31
2018-12-17T00:52:00.529Z,101408.31
2018-12-17T00:55:04.063Z,101410.47
2018-12-17T00:58:07.349Z,101419.85
2018-12-17T01:01:10.616Z,101423.04
2018-12-17T01:04:13.836Z,101431.05
2018-12-17T01:07:19.027Z,101430.15
2018-12-17T01:10:22.194Z,101435.21
2018-12-17T01:13:25.366Z,101443.16
2018-12-17T01:16:28.566Z,101444.63
2018-12-17T01:19:31.874Z,101436.91
2018-12-17T01:22:35.136Z,101439.88
2018-12-17T01:25:38.350Z,101442.88
2018-12-17T01:28:41.826Z,101456.10
2018-12-17T01:31:45.287Z,101448.29
2018-12-17T01:34:48.530Z,101455.94
2018-12-17T01:37:51.736Z,101456.80
2018-12-17T01:40:54.902Z,101452.25
2018-12-17T01:43:58.098Z,101455.38
2018-12-17T01:47:01.431Z,101458.02
2018-12-17T01:50:05.118Z,101450.27
2018-12-17T01:53:08.290Z,101456.97
2018-12-17T01:56:11.510Z,101462.67
2018-12-17T01:59:14.714Z,101464.81
2018-12-17T02:02:18.026Z,101462.98
2018-12-17T02:05:21.364Z,101461.27
2018-12-17T02:08:24.668Z,101466.50
2018-12-17T02:11:29.349Z,101457.89
2018-12-17T02:14:32.543Z,101458.27
2018-12-17T02:17:36.734Z,101458.78
2018-12-17T02:20:40.869Z,101460.50
2018-12-17T02:23:44.030Z,101453.87
2018-12-17T02:26:47.299Z,101453.84
2018-12-17T02:29:50.546Z,101456.55
2018-12-17T02:32:53.825Z,101456.58
2018-12-17T02:35:57.079Z,101455.25
2018-12-17T02:39:00.343Z,101463.22
2018-12-17T02:42:03.694Z,101468.34
2018-12-17T02:45:07.148Z,101473.03
2018-12-17T02:48:10.430Z,101482.83
2018-12-17T02:51:13.584Z,101473.61
2018-12-17T02:54:17.004Z,101484.20
2018-12-17T02:57:21.358Z,101484.52
2018-12-17T03:00:24.638Z,101488.66
2018-12-17T03:03:27.804Z,101481.33
2018-12-17T03:06:31.123Z,101481.20
2018-12-17T03:09:34.330Z,101483.40
2018-12-17T03:12:37.505Z,101488.22
2018-12-17T03:15:40.721Z,101493.35
2018-12-17T03:18:43.895Z,101497.63
2018-12-17T03:21:47.090Z,101492.39
2018-12-17T03:24:50.268Z,101495.52
2018-12-17T03:27:53.558Z,101498.45
2018-12-17T03:30:57.032Z,101497.05
2018-12-17T03:34:00.327Z,101501.67
2018-12-17T03:37:03.480Z,101505.25
2018-12-17T03:40:06.749Z,101503.05
2018-12-17T03:43:09.992Z,101500.84
2018-12-17T03:46:13.171Z,101510.95
2018-12-17T03:49:16.398Z,101509.20
2018-12-17T03:52:19.567Z,101506.69
2018-12-17T03:55:22.757Z,101503.14
2018-12-17T03:58:25.955Z,101514.91
2018-12-17T04:01:29.169Z,101516.28
2018-12-17T04:04:32.354Z,101524.06
2018-12-17T04:07:35.525Z,101519.28
2018-12-17T04:10:39.944Z,101520.14
2018-12-17T04:13:43.886Z,101523.69
2018-12-17T04:16:47.045Z,101525.53
2018-12-17T04:19:50.293Z,101520.69
2018-12-17T04:22:53.457Z,101527.73
2018-12-17T04:25:56.749Z,101529.08
2018-12-17T04:29:06.579Z,101521.20
2018-12-17T04:32:05.127Z,101525.05
2018-12-17T04:35:08.369Z,101532.11
2018-12-17T04:38:11.565Z,101528.98
2018-12-17T04:41:14.771Z,101535.13
2018-12-17T04:44:18.181Z,101534.66
2018-12-17T04:47:23.029Z,101529.74
2018-12-17T04:50:26.714Z,101539.44
2018-12-17T04:53:29.911Z,101544.77
2018-12-17T04:56:33.105Z,101546.72
2018-12-17T04:59:36.299Z,101554.30
2018-12-17T05:02:42.081Z,101554.59
2018-12-17T05:05:45.249Z,101557.34
2018-12-17T05:08:48.415Z,101559.80
2018-12-17T05:11:51.918Z,101562.41
2018-12-17T05:14:55.197Z,101564.29
2018-12-17T05:17:58.346Z,101570.83
2018-12-17T05:21:01.577Z,101574.44
2018-12-17T05:24:04.745Z,101579.05
2018-12-17T05:27:07.902Z,101587.77
2018-12-17T05:30:11.915Z,101592.23
2018-12-17T05:33:15.188Z,101597.59
2018-12-17T05:36:18.369Z,101587.14
2018-12-17T05:39:22.761Z,101597.56
2018-12-17T05:42:25.923Z,101607.89
2018-12-17T05:45:29.128Z,101604.42
2018-12-17T05:48:32.340Z,101608.75
2018-12-17T05:51:35.660Z,101617.36
2018-12-17T05:54:39.020Z,101620.45
2018-12-17T05:57:42.225Z,101615.39
2018-12-17T06:00:45.516Z,101611.75
2018-12-17T06:03:49.546Z,101623.03
2018-12-17T06:06:52.777Z,101616.43
2018-12-17T06:09:56.078Z,101631.27
2018-12-17T06:12:59.316Z,101628.13
2018-12-17T06:16:02.686Z,101619.80
2018-12-17T06:19:06.038Z,101626.23
2018-12-17T06:22:09.590Z,101637.36
2018-12-17T06:25:12.803Z,101640.41
2018-12-17T06:28:15.998Z,101645.00
2018-12-17T06:31:19.236Z,101648.58
2018-12-17T06:34:22.552Z,101653.22
2018-12-17T06:37:25.800Z,101653.84
2018-12-17T06:40:29.081Z,101670.80
2018-12-17T06:43:32.290Z,101673.42
2018-12-17T06:46:35.460Z,101675.28
2018-12-17T06:49:38.709Z,101680.70
2018-12-17T06:52:42.004Z,101686.22
2018-12-17T06:55:45.305Z,101684.43
2018-12-17T06:58:48.595Z,101684.73
2018-12-17T07:01:52.267Z,101696.31
2018-12-17T07:04:55.676Z,101687.05
2018-12-17T07:07:58.965Z,101696.31
2018-12-17T07:11:02.163Z,101704.23
2018-12-17T07:14:05.517Z,101708.63
2018-12-17T07:17:08.769Z,101705.16
2018-12-17T07:20:11.938Z,101704.95
2018-12-17T07:23:15.169Z,101709.01
2018-12-17T07:26:18.601Z,101711.21
2018-12-17T07:29:22.052Z,101705.42
2018-12-17T07:32:25.373Z,101719.47
2018-12-17T07:35:28.639Z,101726.02
2018-12-17T07:38:31.931Z,101717.30
2018-12-17T07:41:35.242Z,101718.69
2018-12-17T07:44:38.429Z,101721.30
2018-12-17T07:47:41.608Z,101720.41
2018-12-17T07:50:44.881Z,101728.25
2018-12-17T07:53:48.122Z,101728.28
2018-12-17T07:56:51.306Z,101731.77
2018-12-17T07:59:56.903Z,101735.72
2018-12-17T08:02:59.684Z,101741.51
2018-12-17T08:06:02.852Z,101739.38
2018-12-17T08:09:07.790Z,101739.38
2018-12-17T08:12:11.003Z,101747.23
2018-12-17T08:15:14.174Z,101753.10
2018-12-17T08:18:25.276Z,101753.06
2018-12-17T08:21:28.664Z,101752.62
2018-12-17T08:24:31.853Z,101755.83
2018-12-17T08:27:35.154Z,101759.67
2018-12-17T08:30:38.330Z,101758.44
2018-12-17T08:33:41.572Z,101765.98
2018-12-17T08:36:45.943Z,101771.33
2018-12-17T08:39:50.491Z,101766.95
2018-12-17T08:42:53.756Z,101769.64
2018-12-17T08:45:57.080Z,101768.55
2018-12-17T08:49:00.286Z,101772.25
2018-12-17T08:52:03.545Z,101774.50
2018-12-17T08:55:06.965Z,101778.09
2018-12-17T08:58:10.219Z,101779.27
2018-12-17T09:01:13.457Z,101780.08
2018-12-17T09:04:17.012Z,101775.04
2018-12-17T09:07:20.237Z,101781.95
2018-12-17T09:10:23.404Z,101786.17
2018-12-17T09:13:26.627Z,101795.69
2018-12-17T09:16:29.829Z,101798.31
2018-12-17T09:19:33.047Z,101800.59
2018-12-17T09:22:37.665Z,101798.34
2018-12-17T09:25:40.949Z,101809.22
2018-12-17T09:28:44.159Z,101810.56
2018-12-17T09:31:47.345Z,101810.16
2018-12-17T09:34:50.566Z,101809.33
2018-12-17T09:37:53.733Z,101811.80
2018-12-17T09:40:57.039Z,101814.68
2018-12-17T09:44:00.202Z,101815.95
2018-12-17T09:47:03.531Z,101811.98
2018-12-17T09:50:07.182Z,101813.66
2018-12-17T09:53:10.454Z,101812.81
2018-12-17T09:56:13.732Z,101812.62
2018-12-17T09:59:16.982Z,101806.52
2018-12-17T10:02:20.300Z,101811.95
2018-12-17T10:05:23.496Z,101818.00
2018-12-17T10:08:26.902Z,101814.27
2018-12-17T10:11:30.086Z,101801.86
2018-12-17T10:14:33.254Z,101803.55
2018-12-17T10:17:37.718Z,101799.81
2018-12-17T10:20:40.883Z,101800.09
2018-12-17T10:23:44.362Z,101799.91
2018-12-17T10:26:49.033Z,101795.92
2018-12-17T10:29:52.256Z,101789.27
2018-12-17T10:32:55.546Z,101799.95
2018-12-17T10:35:58.864Z,101792.47
2018-12-17T10:39:02.053Z,101790.27
2018-12-17T10:42:05.431Z,101797.40
2018-12-17T10:45:08.944Z,101790.25
2018-12-17T10:48:12.106Z,101795.17
2018-12-17T10:51:15.400Z,101792.59
2018-12-17T10:54:18.813Z,101800.17
2018-12-17T10:57:22.008Z,101808.86
2018-12-17T11:00:30.951Z,101810.05
2018-12-17T11:03:58.554Z,101808.25
2018-12-17T11:07:02.076Z,101806.95
2018-12-17T11:10:05.930Z,101807.69
2018-12-17T11:13:09.619Z,101802.47
2018-12-17T11:16:13.029Z,101794.09
2018-12-17T11:19:16.186Z,101801.93
2018-12-17T11:22:19.355Z,101801.19
2018-12-17T11:25:22.514Z,101802.05
2018-12-17T11:28:25.710Z,101793.36
2018-12-17T11:31:28.897Z,101796.23
2018-12-17T11:34:32.234Z,101789.20
2018-12-17T11:37:35.486Z,101779.85
2018-12-17T11:40:38.667Z,101784.30
2018-12-17T11:43:44.039Z,101784.17
2018-12-17T11:46:47.119Z,101787.98
2018-12-17T11:49:50.321Z,101781.97
2018-12-17T11:52:53.513Z,101784.80
2018-12-17T11:55:56.724Z,101788.25
2018-12-17T11:59:01.374Z,101790.61
2018-12-17T12:02:04.651Z,101793.59
2018-12-17T12:05:07.814Z,101789.27
2018-12-17T12:08:11.140Z,101794.57
2018-12-17T12:11:14.939Z,101805.84
2018-12-17T12:14:18.223Z,101803.63
2018-12-17T12:17:21.427Z,101800.41
2018-12-17T12:20:25.732Z,101806.09
2018-12-17T12:23:28.948Z,101809.71
2018-12-17T12:26:32.132Z,101813.64
2018-12-17T12:29:35.995Z,101818.28
2018-12-17T12:32:39.367Z,101826.84
2018-12-17T12:35:42.585Z,101825.77
2018-12-17T12:38:45.830Z,101828.06
2018-12-17T12:41:49.021Z,101832.26
2018-12-17T12:44:52.201Z,101824.52
2018-12-17T12:47:55.398Z,101825.89
2018-12-17T12:51:02.880Z,101826.37
2018-12-17T12:54:06.115Z,101824.29
2018-12-17T12:57:09.297Z,101821.88
2018-12-17T13:00:14.191Z,101822.97
2018-12-17T13:03:17.375Z,101831.13
2018-12-17T13:06:20.555Z,101838.45
2018-12-17T13:09:23.818Z,101834.81
2018-12-17T13:12:27.010Z,101838.75
2018-12-17T13:15:30.364Z,101834.42
2018-12-17T13:18:35.298Z,101835.97
2018-12-17T13:21:38.570Z,101842.88
2018-12-17T13:24:41.746Z,101841.38
2018-12-17T13:27:45.233Z,101843.61
2018-12-17T13:30:48.489Z,101843.61
2018-12-17T13:33:51.863Z,101844.50
2018-12-17T13:36:55.264Z,101842.14
2018-12-17T13:39:58.553Z,101845.55
2018-12-17T13:43:01.744Z,101848.95
2018-12-17T13:46:05.039Z,101850.80
2018-12-17T13:49:08.406Z,101847.25
2018-12-17T13:52:17.122Z,101855.41
2018-12-17T13:55:20.348Z,101866.80
2018-12-17T13:58:23.526Z,101866.63
2018-12-17T14:01:27.304Z,101866.86
2018-12-17T14:04:31.080Z,101869.55
2018-12-17T14:07:34.353Z,101877.56
2018-12-17T14:10:42.901Z,101873.30
2018-12-17T14:13:46.688Z,101878.72
2018-12-17T14:16:55.348Z,101885.98
2018-12-17T14:20:04.148Z,101886.75
2018-12-17T14:23:07.733Z,101882.72
2018-12-17T14:26:11.083Z,101886.95
2018-12-17T14:29:14.376Z,101886.27
2018-12-17T14:32:17.725Z,101887.16
2018-12-17T14:35:21.008Z,101888.55
2018-12-17T14:38:24.327Z,101892.50
2018-12-17T14:41:27.512Z,101891.75
2018-12-17T14:44:35.242Z,101884.72
2018-12-17T14:47:38.583Z,101881.00
2018-12-17T14:50:42.069Z,101874.73
2018-12-17T14:53:45.330Z,101876.17
2018-12-17T14:56:48.578Z,101870.74
2018-12-17T14:59:51.771Z,101874.31
2018-12-17T15:02:55.446Z,101870.09
2018-12-17T15:05:58.919Z,101874.23
2018-12-17T15:09:02.153Z,101868.80
2018-12-17T15:12:05.636Z,101871.99
2018-12-17T15:15:10.053Z,101863.59
2018-12-17T15:18:13.372Z,101864.47
2018-12-17T15:21:16.826Z,101875.36
2018-12-17T15:24:20.696Z,101876.88
2018-12-17T15:27:24.061Z,101875.30
2018-12-17T15:30:28.659Z,101872.41
2018-12-17T15:33:31.854Z,101874.77
2018-12-17T15:36:35.053Z,101889.81
2018-12-17T15:39:38.239Z,101889.14
2018-12-17T15:42:41.522Z,101895.11
2018-12-17T15:45:45.683Z,101898.05
2018-12-17T15:48:48.863Z,101903.91
2018-12-17T15:51:52.055Z,101903.33
2018-12-17T15:54:55.350Z,101918.61
2018-12-17T15:57:58.644Z,101920.58
2018-12-17T16:01:01.936Z,101929.86
2018-12-17T16:04:05.299Z,101920.58
2018-12-17T16:07:08.641Z,101924.89
2018-12-17T16:10:11.871Z,101933.28
2018-12-17T16:13:15.152Z,101931.46
2018-12-17T16:16:18.451Z,101935.28
2018-12-17T16:19:21.747Z,101934.23
2018-12-17T16:22:25.010Z,101933.64
2018-12-17T16:25:28.307Z,101935.10
2018-12-17T16:28:31.522Z,101936.84
2018-12-17T16:31:34.710Z,101943.52
2018-12-17T16:34:38.165Z,101940.45
2018-12-17T16:37:41.394Z,101947.02
2018-12-17T16:40:44.586Z,101939.81
2018-12-17T16:43:47.792Z,101945.52
2018-12-17T16:46:51.111Z,101944.59
2018-12-17T16:49:54.437Z,101960.55
2018-12-17T16:52:57.705Z,101953.39
2018-12-17T16:56:01.003Z,101958.52
2018-12-17T16:59:04.282Z,101958.98
2018-12-17T17:02:07.563Z,101958.20
2018-12-17T17:05:11.098Z,101961.53
2018-12-17T17:08:14.370Z,101967.62
2018-12-17T17:11:17.756Z,101977.35
2018-12-17T17:14:21.267Z,101979.50
2018-12-17T17:17:24.469Z,101979.05
2018-12-17T17:20:28.218Z,101975.80
2018-12-17T17:23:32.380Z,101982.00
2018-12-17T17:26:36.103Z,101991.45
2018-12-17T17:29:39.303Z,101998.55
2018-12-17T17:32:42.513Z,101989.75
2018-12-17T17:35:45.935Z,101987.08
2018-12-17T17:38:50.308Z,101999.19
2018-12-17T17:41:53.864Z,101990.80
2018-12-17T17:44:57.163Z,101995.64
2018-12-17T17:48:00.513Z,101999.67
2018-12-17T17:51:03.797Z,101999.05
2018-12-17T17:54:07.074Z,101998.03
2018-12-17T17:57:10.462Z,101995.29
2018-12-17T18:00:14.401Z,102001.67
2018-12-17T18:03:17.966Z,102002.45
2018-12-17T18:06:21.481Z,102004.66
2018-12-17T18:09:24.820Z,102005.49
2018-12-17T18:12:28.118Z,102006.78
2018-12-17T18:15:31.477Z,102005.38
2018-12-17T18:18:34.705Z,102008.36
2018-12-17T18:21:38.171Z,102011.11
2018-12-17T18:24:42.065Z,102000.78
2018-12-17T18:27:45.268Z,102009.94
2018-12-17T18:30:48.662Z,102007.86
2018-12-17T18:33:52.066Z,102013.94
2018-12-17T18:36:55.418Z,102008.50
2018-12-17T18:39:58.947Z,102020.00
2018-12-17T18:43:02.462Z,102014.20
2018-12-17T18:46:06.372Z,102017.97
2018-12-17T18:49:09.640Z,102019.52
2018-12-17T18:52:12.854Z,102021.97
2018-12-17T18:55:16.139Z,102029.67
2018-12-17T18:58:19.350Z,102025.11
2018-12-17T19:01:22.570Z,102023.66
2018-12-17T19:04:26.009Z,102027.31
2018-12-17T19:07:29.224Z,102027.17
2018-12-17T19:10:37.831Z,102017.46
2018-12-17T19:13:41.142Z,102015.88
2018-12-17T19:16:44.452Z,102020.84
2018-12-17T19:19:47.739Z,102030.24
2018-12-17T19:22:51.006Z,102026.30
2018-12-17T19:25:54.457Z,102025.91
2018-12-17T19:28:57.698Z,102026.90
2018-12-17T19:32:01.005Z,102022.16
2018-12-17T19:35:04.639Z,102020.50
2018-12-17T19:38:08.701Z,102030.90
2018-12-17T19:41:11.991Z,102029.55
2018-12-17T19:44:15.641Z,102035.56
2018-12-17T19:47:18.866Z,102040.16
2018-12-17T19:50:22.273Z,102040.42
2018-12-17T19:53:25.593Z,102034.81
2018-12-17T19:56:28.952Z,102031.88
2018-12-17T19:59:32.323Z,102027.41
2018-12-17T20:02:35.543Z,102034.47
2018-12-17T20:05:38.907Z,102039.91
2018-12-17T20:08:42.271Z,102042.69
2018-12-17T20:11:45.730Z,102044.30
2018-12-17T20:14:49.215Z,102046.87
2018-12-17T20:17:52.687Z,102038.09
2018-12-17T20:20:55.927Z,102034.69
2018-12-17T20:23:59.311Z,102038.58
2018-12-17T20:27:03.391Z,102053.56
2018-12-17T20:30:08.608Z,102047.64
2018-12-17T20:33:11.892Z,102043.58
2018-12-17T20:36:15.199Z,102049.34
2018-12-17T20:39:18.491Z,102048.54
2018-12-17T20:42:21.847Z,102059.05
2018-12-17T20:45:25.267Z,102062.69
2018-12-17T20:48:28.601Z,102072.72
2018-12-17T20:51:31.922Z,102069.05
2018-12-17T20:54:35.269Z,102068.06
2018-12-17T20:57:38.584Z,102064.99
2018-12-17T21:00:41.899Z,102054.78
2018-12-17T21:03:45.179Z,102047.86
2018-12-17T21:06:50.100Z,102044.48
2018-12-17T21:09:53.598Z,102036.75
2018-12-17T21:12:56.840Z,102041.52
2018-12-17T21:16:00.143Z,102032.42
2018-12-17T21:19:03.369Z,102041.38
2018-12-17T21:22:09.438Z,102054.16
2018-12-17T21:25:12.727Z,102051.64
2018-12-17T21:28:15.942Z,102048.11
2018-12-17T21:31:19.735Z,102046.38
2018-12-17T21:34:23.033Z,102053.47
2018-12-17T21:37:26.317Z,102049.23
2018-12-17T21:40:29.723Z,102045.22
2018-12-17T21:43:36.006Z,102048.06
2018-12-17T21:46:38.288Z,102042.69
2018-12-17T21:49:41.651Z,102044.98
2018-12-17T21:52:44.888Z,102052.25
2018-12-17T21:55:48.162Z,102047.95
2018-12-17T21:58:51.363Z,102042.00
2018-12-17T22:01:54.771Z,102037.47
2018-12-17T22:04:58.062Z,102027.88
2018-12-17T22:08:01.352Z,102032.17
2018-12-17T22:11:04.677Z,102038.27
2018-12-17T22:14:07.961Z,102035.38
2018-12-17T22:17:11.108Z,102031.70
2018-12-17T22:20:14.487Z,102046.54
2018-12-17T22:23:17.735Z,102043.32
2018-12-17T22:26:20.917Z,102052.37
2018-12-17T22:29:24.236Z,102060.45
2018-12-17T22:32:27.537Z,102064.27
2018-12-17T22:35:30.848Z,102062.25
2018-12-17T22:38:34.087Z,102059.08
2018-12-17T22:41:37.310Z,102076.16
2018-12-17T22:44:40.611Z,102068.06
2018-12-17T22:47:43.896Z,102068.88
2018-12-17T22:50:47.151Z,102060.60
2018-12-17T22:53:50.792Z,102061.11
2018-12-17T22:56:54.011Z,102062.16
2018-12-17T22:59:59.272Z,102064.25
2018-12-17T23:03:02.553Z,102064.63
2018-12-17T23:06:05.922Z,102063.02
2018-12-17T23:09:08.457Z,102060.00
2018-12-17T23:12:23.136Z,102064.73
2018-12-17T23:15:37.767Z,102064.25
2018-12-17T23:18:40.042Z,102042.81
2018-12-17T23:21:43.211Z,102040.77
2018-12-17T23:24:46.703Z,102042.00
2018-12-17T23:27:50.972Z,102040.98
2018-12-17T23:30:54.229Z,102036.03
2018-12-17T23:33:57.397Z,102024.66
2018-12-17T23:37:00.662Z,102041.60
2018-12-17T23:40:04.135Z,102037.73
2018-12-17T23:43:09.528Z,102039.70
2018-12-17T23:46:15.061Z,102047.11
2018-12-17T23:49:18.602Z,102049.05
2018-12-17T23:52:22.011Z,102054.78
2018-12-17T23:55:25.302Z,102052.42
2018-12-17T23:58:28.826Z,102055.05
